Portada
METAR-TAF:

METAR-TAF

Aeropuertos :

Aeropuerto Internacional de Nador

Nador, Marruecos

latitud: 34-59-20N, longitud: 003-01-42W, altitud: 175 m

Observación

El informe se hizo hace 47 minutos, a las 08:00 UTC
Viento 7 kt del noreste, variando entre norte-noreste y este-sureste
Temperatura 26°C
Humedad 70%
Presión 1017 hPa
Visibilidad: 8000 m
Nubes dispersas a una altura de 1500 ft
Nubes dispersas a una altura de 3000 ft

METAR: GMMW 180800Z 05007KT 020V110 8000 SCT015 SCT030 26/20 Q1017 NOSIG

Hora: 09:47 (08:47 UTC)

Pronóstico

El informe se hizo hace 9 horas y 47 minutos, a las 23:00 UTC
Pronóstico válido del 18 a las 00 UTC al 19 a las 06 UTC
Viento 3 kt del este-noreste
Visibilidad: 8000 m
Nubes dispersas a una altura de 1000 ft
Nubes dispersas a una altura de 2000 ft

TAF: GMMW 172300Z 1800/1906 07003KT 8000 SCT010 SCT020

Observaciones y pronósticos meteorológicos de más de 4000 aeropuertos (mensajes METAR y TAF).

Los puntos amarillos y rojos representan las estaciones disponibles.

Ponga el ratón en el punto deseado para ver el nombre de la estación.

Haga clic para ver las observaciones y los pronósticos meteorológicos.

Para cambiar el mapa : haga clic en los botones verdes con una cruz de color negro para hacer un zoom, en el botón verde con un guión para alejar o en las flechas verdes para mapas adyacentes.


METAR-TAF: